Time;durP1;ratioP1;P1;durP2;ratioP2;P2;SDS_P1;SDS_P2;PMS_P1;PMS_P2;Temp;Humidity;BMP_temperature;BMP_pressure;BME280_temperature;BME280_humidity;BME280_pressure;Samples;Min_cycle;Max_cycle;Signal;HPM_P1;HPM_P2
2023/05/24 00:01:55;;;;;;;15.00;2.83;;;;;;;12.06;48.57;100528.63;5049390;28;20057;-79
2023/05/24 00:04:23;;;;;;;13.95;2.88;;;;;;;12.05;48.59;100529.56;5050445;28;20087;-79
2023/05/24 00:06:53;;;;;;;15.05;3.00;;;;;;;12.03;48.83;100534.00;5050409;28;20072;-80
2023/05/24 00:09:21;;;;;;;11.55;3.45;;;;;;;12.02;48.90;100529.66;5050559;28;20061;-80
2023/05/24 00:11:47;;;;;;;18.10;3.85;;;;;;;11.99;49.10;100520.13;5049162;28;20549;-80
2023/05/24 00:14:14;;;;;;;15.38;3.30;;;;;;;11.99;49.13;100509.56;5050103;28;20044;-80
2023/05/24 00:16:41;;;;;;;23.67;3.97;;;;;;;11.98;49.18;100507.00;5050344;28;20111;-80
2023/05/24 00:19:09;;;;;;;13.65;3.20;;;;;;;11.96;49.15;100501.81;5049351;28;20053;-79
2023/05/24 00:21:37;;;;;;;18.17;3.10;;;;;;;11.95;49.28;100504.53;5050285;28;20053;-80
2023/05/24 00:24:04;;;;;;;15.85;3.50;;;;;;;11.93;49.30;100506.41;5034935;28;20506;-80
2023/05/24 00:26:30;;;;;;;13.15;3.45;;;;;;;11.89;49.54;100508.31;5030551;28;20061;-79
2023/05/24 00:28:57;;;;;;;12.95;3.53;;;;;;;11.86;49.68;100503.22;5030314;28;20060;-80
2023/05/24 00:31:23;;;;;;;11.35;2.83;;;;;;;11.84;49.84;100505.94;5030463;28;20112;-79
2023/05/24 00:33:50;;;;;;;16.58;3.67;;;;;;;11.82;49.71;100502.50;5040096;28;20060;-79
2023/05/24 00:36:17;;;;;;;22.65;4.47;;;;;;;11.80;49.86;100503.50;5050122;28;20053;-80
2023/05/24 00:38:43;;;;;;;17.55;3.85;;;;;;;11.77;49.82;100498.41;5032572;28;20049;-79
2023/05/24 00:41:10;;;;;;;18.92;3.97;;;;;;;11.74;49.78;100491.50;5050373;28;20088;-79
2023/05/24 00:43:37;;;;;;;19.90;3.88;;;;;;;11.71;50.05;100486.38;5043917;28;20049;-79
2023/05/24 00:46:30;;;;;;;21.73;4.47;;;;;;;11.64;51.09;100488.47;5012658;28;20053;-79
2023/05/24 00:48:59;;;;;;;14.07;3.38;;;;;;;11.66;49.99;100483.94;5030125;28;20437;-80
2023/05/24 00:51:26;;;;;;;17.58;3.78;;;;;;;11.64;50.07;100480.56;5030362;28;20143;-79
2023/05/24 00:53:53;;;;;;;18.30;4.03;;;;;;;11.64;50.38;100479.69;5035301;28;20545;-79
2023/05/24 00:56:21;;;;;;;16.88;3.33;;;;;;;11.63;50.42;100483.25;5032406;28;20136;-79
2023/05/24 00:58:49;;;;;;;16.02;3.85;;;;;;;11.62;50.65;100481.56;5032375;28;20068;-79
2023/05/24 01:01:16;;;;;;;15.90;4.03;;;;;;;11.63;50.72;100480.63;5032199;28;20576;-80
2023/05/24 01:03:43;;;;;;;18.25;3.97;;;;;;;11.61;50.70;100483.34;5048939;28;20107;-79
2023/05/24 01:06:14;;;;;;;14.63;3.22;;;;;;;11.58;51.37;100473.78;5049367;28;20057;-79
2023/05/24 01:08:50;;;;;;;17.58;3.15;;;;;;;11.57;51.31;100473.88;5049990;28;20063;-80
2023/05/24 01:11:28;;;;;;;17.27;3.63;;;;;;;11.52;51.54;100463.56;5049996;28;20061;-79
2023/05/24 01:14:00;;;;;;;17.45;4.07;;;;;;;11.52;51.22;100470.63;5050242;28;20061;-79
2023/05/24 01:17:04;;;;;;;20.35;4.07;;;;;;;11.42;51.63;100473.72;5030304;28;20472;-79
2023/05/24 01:19:37;;;;;;;;;;;;;;;11.45;50.59;100472.69;5032694;28;20103;-79
2023/05/24 01:22:10;;;;;;;10.50;3.20;;;;;;;11.46;51.13;100471.75;5035898;28;20582;-79
2023/05/24 01:24:52;;;;;;;20.67;3.70;;;;;;;11.40;51.77;100480.00;5050101;28;20071;-79
2023/05/24 01:27:21;;;;;;;14.55;3.63;;;;;;;11.37;51.09;100478.34;5049579;28;20045;-79
2023/05/24 01:29:52;;;;;;;21.52;3.50;;;;;;;11.34;51.02;100478.50;5048602;28;20472;-79
2023/05/24 01:32:19;;;;;;;22.10;4.22;;;;;;;11.33;51.23;100480.28;5049711;28;20127;-79
2023/05/24 01:34:46;;;;;;;20.75;3.80;;;;;;;11.30;51.26;100466.41;5049613;28;20139;-79
2023/05/24 01:37:13;;;;;;;23.30;4.00;;;;;;;11.29;51.34;100468.16;5048262;28;20049;-80
2023/05/24 01:39:41;;;;;;;17.90;4.93;;;;;;;11.27;51.65;100467.41;5049683;28;20148;-79
2023/05/24 01:42:17;;;;;;;15.55;3.88;;;;;;;11.26;51.63;100480.66;5048537;28;20048;-79
2023/05/24 01:45:02;;;;;;;16.00;3.10;;;;;;;11.22;52.96;100482.59;5051422;28;20111;-79
2023/05/24 01:47:50;;;;;;;21.83;4.20;;;;;;;11.18;52.95;100476.59;5051879;28;20057;-79
2023/05/24 01:50:41;;;;;;;18.85;4.53;;;;;;;11.18;52.93;100473.13;5053365;28;20063;-79
2023/05/24 01:53:11;;;;;;;18.65;3.97;;;;;;;11.21;52.07;100475.59;5051883;28;20088;-79
2023/05/24 01:55:39;;;;;;;23.48;4.45;;;;;;;11.21;51.83;100480.84;5052689;28;20163;-79
2023/05/24 01:58:08;;;;;;;21.77;4.07;;;;;;;11.19;52.22;100469.56;5053108;28;20103;-80
2023/05/24 02:00:37;;;;;;;20.95;4.45;;;;;;;11.17;52.33;100466.97;5051978;28;20102;-79
2023/05/24 02:03:05;;;;;;;25.48;4.95;;;;;;;11.15;52.18;100457.44;5052905;28;20679;-79
2023/05/24 02:05:32;;;;;;;19.90;4.22;;;;;;;11.15;52.27;100475.91;5052813;28;20060;-79
2023/05/24 02:07:59;;;;;;;22.55;4.35;;;;;;;11.13;52.57;100472.47;5051147;28;20053;-79
2023/05/24 02:10:26;;;;;;;23.13;3.80;;;;;;;11.10;52.61;100467.38;5052980;28;20543;-79
2023/05/24 02:12:52;;;;;;;18.10;4.03;;;;;;;11.10;52.56;100475.25;5051669;28;20461;-79
2023/05/24 02:15:19;;;;;;;18.08;4.30;;;;;;;11.10;52.67;100476.09;5052636;28;20053;-79
2023/05/24 02:17:46;;;;;;;21.85;4.55;;;;;;;11.10;52.84;100480.53;5052468;28;20456;-79
2023/05/24 02:20:13;;;;;;;19.63;4.43;;;;;;;11.12;52.76;100476.03;5052706;28;20048;-79
2023/05/24 02:35:04;;;;;;;16.98;3.58;;;;;;;11.19;52.85;100451.97;5030086;28;20049;-79
2023/05/24 02:37:31;;;;;;;17.33;4.68;;;;;;;11.19;52.78;100451.09;5031954;28;20144;-79
2023/05/24 02:39:57;;;;;;;22.50;4.68;;;;;;;11.18;52.94;100449.41;5032323;28;20060;-79
2023/05/24 02:42:24;;;;;;;16.33;4.07;;;;;;;11.15;52.84;100453.03;5032171;28;20065;-79
2023/05/24 02:44:51;;;;;;;17.73;4.85;;;;;;;11.13;53.00;100459.28;5030735;28;20392;-79
2023/05/24 02:47:18;;;;;;;16.05;4.10;;;;;;;11.10;53.09;100447.13;5031924;28;20069;-79
2023/05/24 02:49:45;;;;;;;25.77;4.85;;;;;;;11.07;53.18;100445.50;5031808;28;20049;-79
2023/05/24 02:52:12;;;;;;;16.85;4.30;;;;;;;11.05;53.31;100452.63;5031681;28;20115;-79
2023/05/24 02:54:39;;;;;;;21.63;4.68;;;;;;;11.03;53.34;100453.63;5032855;28;20139;-79
2023/05/24 02:57:05;;;;;;;15.65;4.57;;;;;;;11.02;53.63;100449.25;5031139;28;20095;-79
2023/05/24 02:59:32;;;;;;;25.08;5.07;;;;;;;11.01;53.82;100453.69;5031905;28;20059;-79
2023/05/24 03:01:59;;;;;;;14.90;4.40;;;;;;;11.04;53.94;100452.69;5031011;28;20164;-79
2023/05/24 03:04:26;;;;;;;20.30;4.70;;;;;;;11.05;54.00;100435.94;5032033;28;20053;-79
2023/05/24 03:06:52;;;;;;;25.27;4.57;;;;;;;11.09;54.20;100448.06;5031876;28;20463;-79
2023/05/24 03:09:19;;;;;;;20.67;5.13;;;;;;;11.11;54.29;100440.94;5031995;28;20057;-79
2023/05/24 03:11:45;;;;;;;18.75;4.32;;;;;;;11.15;54.35;100441.63;5031750;28;20778;-79
2023/05/24 03:14:12;;;;;;;19.02;4.25;;;;;;;11.18;54.48;100452.03;5030644;28;20065;-79
2023/05/24 03:16:39;;;;;;;23.02;4.30;;;;;;;11.21;54.43;100454.50;5031810;28;20133;-79
2023/05/24 03:19:05;;;;;;;24.10;4.95;;;;;;;11.25;54.37;100450.78;5031459;28;20103;-79
2023/05/24 03:21:35;;;;;;;18.00;4.00;;;;;;;11.29;54.53;100447.09;5031567;28;20065;-79
2023/05/24 03:24:02;;;;;;;19.52;4.55;;;;;;;11.33;54.64;100442.53;5030437;28;20049;-79
2023/05/24 03:26:29;;;;;;;22.10;4.57;;;;;;;11.37;54.57;100444.09;5032011;28;20047;-79
2023/05/24 03:28:55;;;;;;;19.35;4.30;;;;;;;11.41;54.57;100457.97;5031504;28;20065;-79
2023/05/24 03:31:25;;;;;;;16.42;3.92;;;;;;;11.45;54.50;100436.63;5030131;28;20112;-80
2023/05/24 03:33:52;;;;;;;19.80;4.10;;;;;;;11.50;54.61;100441.69;5031372;28;20061;-80
2023/05/24 03:36:19;;;;;;;21.63;4.35;;;;;;;11.54;54.82;100447.66;5031239;28;20136;-79
2023/05/24 03:38:46;;;;;;;15.50;4.03;;;;;;;11.57;54.49;100448.38;5031354;28;20053;-79
2023/05/24 03:41:13;;;;;;;22.38;4.22;;;;;;;11.60;54.39;100450.00;5029997;28;20053;-79
2023/05/24 03:43:39;;;;;;;20.65;4.40;;;;;;;11.62;54.67;100444.66;5031430;28;20057;-79
2023/05/24 03:46:06;;;;;;;18.48;5.25;;;;;;;11.63;54.64;100436.66;5030026;28;20053;-79
2023/05/24 03:48:32;;;;;;;14.38;3.92;;;;;;;11.66;54.60;100444.41;5030968;28;20053;-79
2023/05/24 03:50:59;;;;;;;18.92;4.55;;;;;;;11.69;54.64;100461.84;5031243;28;20061;-79
2023/05/24 03:53:27;;;;;;;23.60;4.68;;;;;;;11.71;54.73;100452.09;5031372;28;20053;-79
2023/05/24 03:55:54;;;;;;;21.42;5.15;;;;;;;11.73;54.76;100451.06;5030981;28;20053;-79
2023/05/24 03:58:21;;;;;;;22.05;5.65;;;;;;;11.75;54.76;100444.88;5030940;28;20168;-79
2023/05/24 04:00:47;;;;;;;21.77;4.65;;;;;;;11.76;54.58;100441.28;5031057;28;20411;-79
2023/05/24 04:03:14;;;;;;;22.70;5.28;;;;;;;11.78;54.69;100437.63;5031464;28;20076;-79
2023/05/24 04:05:41;;;;;;;20.55;4.60;;;;;;;11.80;54.62;100442.84;5030745;28;20495;-80
2023/05/24 04:08:07;;;;;;;15.68;4.07;;;;;;;11.82;54.85;100438.34;5030841;28;20061;-79
2023/05/24 04:10:34;;;;;;;17.58;4.07;;;;;;;11.84;55.01;100442.63;5029460;28;20458;-79
2023/05/24 04:13:02;;;;;;;21.23;4.82;;;;;;;11.86;54.95;100442.53;5030794;28;20054;-80
2023/05/24 04:15:29;;;;;;;24.48;5.25;;;;;;;11.90;54.85;100445.88;5030552;28;20150;-79
2023/05/24 04:17:56;;;;;;;21.45;4.93;;;;;;;11.91;54.81;100445.78;5030445;28;20136;-80
2023/05/24 04:20:24;;;;;;;24.30;4.03;;;;;;;11.93;54.66;100453.63;5030886;28;20057;-80
2023/05/24 04:22:51;;;;;;;16.70;4.72;;;;;;;11.95;54.94;100446.47;5030702;28;20124;-80
2023/05/24 04:25:18;;;;;;;19.27;4.03;;;;;;;11.95;54.75;100452.63;5030613;28;20111;-80
2023/05/24 04:27:47;;;;;;;19.88;4.55;;;;;;;11.97;54.94;100456.00;5030559;28;20058;-79
2023/05/24 04:30:15;;;;;;;17.08;4.45;;;;;;;11.98;54.95;100462.16;5030546;28;20054;-79
2023/05/24 04:32:46;;;;;;;16.88;5.00;;;;;;;11.98;54.74;100459.53;5030524;28;20053;-79
2023/05/24 04:35:13;;;;;;;17.90;4.40;;;;;;;11.99;54.82;100462.09;5030598;28;20119;-79
2023/05/24 04:37:40;;;;;;;18.17;4.32;;;;;;;12.01;55.11;100459.38;5030540;28;20107;-79
2023/05/24 04:40:08;;;;;;;20.15;4.53;;;;;;;12.03;55.04;100457.50;5030608;28;20057;-79
2023/05/24 04:42:35;;;;;;;21.25;5.13;;;;;;;12.05;55.06;100458.31;5030349;28;20049;-79
2023/05/24 04:45:02;;;;;;;23.83;4.68;;;;;;;12.09;55.03;100454.59;5030588;28;20108;-79
2023/05/24 04:47:28;;;;;;;21.65;4.93;;;;;;;12.12;55.04;100446.47;5029131;28;20049;-79
2023/05/24 04:49:55;;;;;;;18.38;4.15;;;;;;;12.16;55.03;100456.88;5030583;28;20060;-79
2023/05/24 04:52:22;;;;;;;17.63;4.32;;;;;;;12.17;54.80;100467.38;5030224;28;20061;-79
2023/05/24 04:54:49;;;;;;;17.88;4.82;;;;;;;12.19;54.82;100454.09;5030361;28;20061;-79
2023/05/24 04:57:16;;;;;;;19.33;5.40;;;;;;;12.20;54.82;100455.78;5029908;28;20049;-79
2023/05/24 04:59:43;;;;;;;21.50;5.22;;;;;;;12.20;54.59;100446.09;5030211;28;20049;-80
2023/05/24 05:02:09;;;;;;;21.00;4.50;;;;;;;12.21;54.91;100449.56;5030171;28;20433;-79
2023/05/24 05:04:36;;;;;;;17.33;4.60;;;;;;;12.20;54.88;100448.75;5030362;28;20065;-79
2023/05/24 05:07:03;;;;;;;19.75;4.63;;;;;;;12.21;54.92;100453.06;5030093;28;20414;-80
2023/05/24 05:09:30;;;;;;;19.92;5.13;;;;;;;12.21;54.88;100454.84;5030338;28;20092;-79
2023/05/24 05:11:57;;;;;;;20.60;4.15;;;;;;;12.21;54.98;100453.06;5030014;28;20145;-79
2023/05/24 05:14:24;;;;;;;22.90;5.22;;;;;;;12.22;55.02;100461.81;5030090;28;20549;-79
2023/05/24 05:16:50;;;;;;;16.08;4.15;;;;;;;12.22;54.98;100461.81;5029957;28;20057;-79
2023/05/24 05:19:17;;;;;;;16.73;4.70;;;;;;;12.23;55.18;100472.31;5031088;28;20088;-79
2023/05/24 05:21:44;;;;;;;18.98;4.35;;;;;;;12.23;55.50;100469.66;5033754;28;20135;-79
2023/05/24 05:24:13;;;;;;;19.17;4.65;;;;;;;12.27;55.25;100472.16;5033857;28;20053;-79
2023/05/24 05:26:40;;;;;;;17.73;4.90;;;;;;;12.28;55.22;100466.81;5032740;28;20052;-79
2023/05/24 05:29:07;;;;;;;20.23;4.93;;;;;;;12.31;55.42;100477.22;5033567;28;20060;-78
2023/05/24 05:31:33;;;;;;;18.48;4.85;;;;;;;12.32;55.54;100470.97;5033602;28;20061;-79
2023/05/24 05:34:00;;;;;;;18.35;4.78;;;;;;;12.34;55.50;100477.03;5033823;28;20049;-79
2023/05/24 05:36:27;;;;;;;15.43;4.55;;;;;;;12.37;55.40;100471.59;5033594;28;20061;-78
2023/05/24 05:38:53;;;;;;;19.65;4.85;;;;;;;12.42;55.62;100473.13;5033319;28;20123;-78
2023/05/24 05:41:20;;;;;;;16.92;4.72;;;;;;;12.45;55.55;100478.25;5033649;28;20095;-78
2023/05/24 05:43:47;;;;;;;14.52;4.80;;;;;;;12.49;55.62;100477.16;5033801;28;20054;-78
2023/05/24 05:46:14;;;;;;;19.27;4.78;;;;;;;12.52;55.54;100471.69;5033414;28;20149;-78
2023/05/24 05:48:41;;;;;;;20.17;4.20;;;;;;;12.56;55.59;100477.69;5033585;28;20049;-79
2023/05/24 05:51:11;;;;;;;20.20;4.25;;;;;;;12.59;55.33;100480.13;5033364;28;20061;-78
2023/05/24 05:53:38;;;;;;;17.45;4.25;;;;;;;12.61;55.58;100479.16;5031776;28;20057;-79
2023/05/24 05:56:05;;;;;;;14.90;4.50;;;;;;;12.64;55.47;100472.84;5031718;28;20494;-78
2023/05/24 05:58:31;;;;;;;16.83;4.03;;;;;;;12.69;55.54;100480.50;5033225;28;20057;-78
2023/05/24 06:00:58;;;;;;;17.77;4.13;;;;;;;12.72;55.51;100477.69;5032984;28;20056;-79
2023/05/24 06:03:24;;;;;;;21.38;5.40;;;;;;;12.76;55.53;100476.59;5033125;28;20107;-79
2023/05/24 06:05:51;;;;;;;11.93;3.60;;;;;;;12.80;55.78;100474.63;5032764;28;20057;-79
2023/05/24 06:08:18;;;;;;;19.05;4.88;;;;;;;12.86;55.70;100472.50;5033057;28;20060;-79
2023/05/24 06:10:45;;;;;;;18.05;5.07;;;;;;;12.90;55.89;100476.69;5032981;28;20089;-78
2023/05/24 06:13:12;;;;;;;18.05;5.40;;;;;;;12.97;56.22;100471.91;5033055;28;20115;-79
2023/05/24 06:15:39;;;;;;;21.00;4.82;;;;;;;13.05;55.69;100475.91;5032630;28;20061;-79
2023/05/24 06:18:06;;;;;;;19.98;4.65;;;;;;;13.11;55.51;100480.84;5032829;28;20050;-78
2023/05/24 06:20:32;;;;;;;16.77;4.60;;;;;;;13.17;55.57;100472.59;5032535;28;20077;-79
2023/05/24 06:22:59;;;;;;;22.35;5.07;;;;;;;13.24;55.65;100481.88;5032960;28;20049;-79
2023/05/24 06:25:29;;;;;;;20.55;5.68;;;;;;;13.31;55.39;100482.41;5032377;28;20055;-78
2023/05/24 06:27:56;;;;;;;22.35;4.97;;;;;;;13.38;55.29;100475.78;5032582;28;20059;-79
2023/05/24 06:30:22;;;;;;;17.92;4.50;;;;;;;13.41;55.03;100472.97;5031710;28;20092;-79
2023/05/24 06:32:49;;;;;;;18.67;4.97;;;;;;;13.49;55.11;100482.31;5032230;28;20127;-78
2023/05/24 06:35:16;;;;;;;18.95;4.63;;;;;;;13.55;55.20;100489.88;5032596;28;20053;-79
2023/05/24 06:37:43;;;;;;;17.42;4.00;;;;;;;13.61;55.20;100489.50;5031105;28;20103;-78
2023/05/24 06:40:10;;;;;;;18.67;4.30;;;;;;;13.69;55.23;100491.72;5032657;28;20100;-79
2023/05/24 06:42:37;;;;;;;21.70;4.85;;;;;;;13.76;55.17;100495.69;5032381;28;20111;-79
2023/05/24 06:45:04;;;;;;;18.35;4.57;;;;;;;13.83;54.78;100501.47;5032285;28;20104;-79
2023/05/24 06:47:31;;;;;;;20.40;4.32;;;;;;;13.90;54.51;100508.13;5032138;28;20088;-78
2023/05/24 06:49:59;;;;;;;15.50;4.32;;;;;;;13.96;54.62;100500.75;5032308;28;20486;-79
2023/05/24 06:52:26;;;;;;;20.90;5.43;;;;;;;14.02;54.72;100500.41;5031367;28;20581;-79
2023/05/24 06:54:52;;;;;;;14.70;4.15;;;;;;;14.07;54.66;100498.34;5031317;28;20065;-79
2023/05/24 06:57:20;;;;;;;19.98;5.28;;;;;;;14.14;54.66;100496.19;5030561;28;20057;-79
2023/05/24 06:59:46;;;;;;;18.27;5.22;;;;;;;14.20;54.38;100499.31;5031570;28;20383;-79
2023/05/24 07:02:13;;;;;;;16.35;4.53;;;;;;;14.29;54.49;100503.19;5030404;28;20108;-78
2023/05/24 07:04:40;;;;;;;19.90;4.75;;;;;;;14.38;54.78;100495.63;5030937;28;20057;-79
2023/05/24 07:07:11;;;;;;;16.65;4.43;;;;;;;14.48;54.53;100511.81;5031581;28;20063;-79
2023/05/24 07:09:40;;;;;;;17.00;4.65;;;;;;;14.59;54.52;100512.84;5032017;28;20136;-79
2023/05/24 07:12:06;;;;;;;15.13;4.50;;;;;;;14.68;54.11;100522.03;5031810;28;20100;-79
2023/05/24 07:14:34;;;;;;;23.13;4.10;;;;;;;14.77;54.03;100525.09;5031759;28;20045;-79
2023/05/24 07:17:01;;;;;;;18.88;4.20;;;;;;;14.84;53.50;100529.06;5031635;28;20107;-79
2023/05/24 07:19:28;;;;;;;16.95;5.00;;;;;;;14.89;53.42;100524.31;5031709;28;20388;-79
2023/05/24 07:21:55;;;;;;;16.75;4.60;;;;;;;14.93;53.12;100528.47;5031682;28;20050;-79
2023/05/24 07:24:22;;;;;;;18.13;4.57;;;;;;;14.96;53.04;100527.44;5031606;28;20409;-78
2023/05/24 07:26:50;;;;;;;17.23;4.68;;;;;;;14.97;52.96;100530.00;5030832;28;20510;-79
2023/05/24 07:29:17;;;;;;;13.18;4.28;;;;;;;14.99;52.98;100516.59;5031391;28;20111;-79
2023/05/24 07:31:44;;;;;;;16.33;4.50;;;;;;;15.03;53.06;100522.59;5030162;28;20061;-79
2023/05/24 07:34:10;;;;;;;15.55;4.00;;;;;;;15.07;53.39;100513.50;5031336;28;20050;-79
2023/05/24 07:36:37;;;;;;;17.92;3.95;;;;;;;15.14;53.15;100514.78;5031198;28;20049;-79
2023/05/24 07:39:05;;;;;;;17.05;5.03;;;;;;;15.22;53.34;100512.50;5031006;28;20111;-79
2023/05/24 07:41:32;;;;;;;15.20;4.55;;;;;;;15.30;52.78;100525.28;5030874;28;20133;-78
2023/05/24 07:43:58;;;;;;;17.83;4.70;;;;;;;15.37;52.93;100517.78;5031043;28;20076;-80
2023/05/24 07:46:25;;;;;;;17.70;4.75;;;;;;;15.45;52.79;100531.38;5031063;28;20088;-80
2023/05/24 07:48:52;;;;;;;17.45;4.25;;;;;;;15.55;52.45;100531.63;5031067;28;20049;-80
2023/05/24 07:51:20;;;;;;;22.20;4.55;;;;;;;15.60;52.39;100531.31;5031293;28;20096;-80
2023/05/24 07:53:46;;;;;;;19.90;4.25;;;;;;;15.66;52.06;100514.97;5031044;28;20053;-80
2023/05/24 07:56:13;;;;;;;14.50;4.25;;;;;;;15.70;51.77;100516.47;5030828;28;20049;-79
2023/05/24 07:58:41;;;;;;;18.80;4.65;;;;;;;15.73;51.63;100512.78;5030830;28;20144;-79
2023/05/24 08:01:08;;;;;;;23.25;5.47;;;;;;;15.74;51.66;100515.31;5031134;28;20049;-79
2023/05/24 08:03:36;;;;;;;17.98;3.97;;;;;;;15.78;51.43;100516.00;5030930;28;20054;-79
2023/05/24 08:06:02;;;;;;;20.88;4.20;;;;;;;15.82;51.60;100521.94;5030796;28;20088;-79
2023/05/24 08:08:29;;;;;;;17.13;4.32;;;;;;;15.85;51.68;100511.94;5030644;28;20097;-79
2023/05/24 08:10:56;;;;;;;16.33;5.20;;;;;;;15.88;51.80;100521.50;5030725;28;20053;-79
2023/05/24 08:13:23;;;;;;;18.55;4.53;;;;;;;15.94;51.30;100512.28;5029264;28;20065;-79
2023/05/24 08:15:49;;;;;;;14.18;4.10;;;;;;;15.96;51.25;100518.41;5030765;28;20127;-79
2023/05/24 08:18:16;;;;;;;19.70;5.10;;;;;;;15.98;51.13;100525.28;5030528;28;20626;-79
2023/05/24 08:20:42;;;;;;;14.57;4.20;;;;;;;16.01;50.99;100524.25;5029291;28;20528;-79
2023/05/24 08:23:09;;;;;;;15.35;4.22;;;;;;;16.03;50.94;100517.00;5030615;28;20061;-79
2023/05/24 08:25:36;;;;;;;23.30;4.60;;;;;;;16.05;50.77;100527.53;5029100;28;20112;-79
2023/05/24 08:28:03;;;;;;;14.38;4.40;;;;;;;16.06;50.57;100527.44;5030630;28;20196;-79
2023/05/24 08:30:31;;;;;;;18.55;4.07;;;;;;;16.07;50.43;100522.97;5030609;28;20072;-80
2023/05/24 08:32:57;;;;;;;14.65;3.92;;;;;;;16.06;50.31;100524.78;5083135;23;20053;-78
2023/05/24 08:35:34;;;;;;;14.73;4.80;;;;;;;16.05;50.30;100522.22;5046787;28;20057;-77
2023/05/24 08:38:01;;;;;;;14.07;4.45;;;;;;;16.03;50.48;100524.97;5050198;28;20052;-77
2023/05/24 08:40:27;;;;;;;21.95;4.68;;;;;;;16.04;50.96;100521.38;5050129;28;20154;-76
2023/05/24 08:42:58;;;;;;;16.98;4.30;;;;;;;16.08;51.27;100522.88;5050535;28;20301;-77
2023/05/24 08:45:25;;;;;;;19.15;4.10;;;;;;;16.17;51.31;100518.72;5050311;28;20160;-77
2023/05/24 08:47:53;;;;;;;19.95;4.90;;;;;;;16.26;51.20;100523.41;5050169;28;20387;-76
2023/05/24 08:50:20;;;;;;;17.70;3.83;;;;;;;16.39;51.29;100526.06;5048983;28;20060;-77
2023/05/24 08:52:48;;;;;;;20.05;4.80;;;;;;;16.53;51.11;100532.22;5050261;28;20057;-77
2023/05/24 08:55:15;;;;;;;12.93;4.05;;;;;;;16.64;50.52;100534.13;5052988;28;20057;-77
2023/05/24 08:57:44;;;;;;;16.95;4.45;;;;;;;16.74;50.22;100532.53;5054219;28;20045;-77
2023/05/24 09:00:12;;;;;;;14.98;3.90;;;;;;;16.89;50.37;100535.91;5054195;28;20061;-76
2023/05/24 09:02:40;;;;;;;19.77;3.95;;;;;;;17.01;49.80;100536.81;5054343;28;20078;-76
2023/05/24 09:05:15;;;;;;;18.92;4.60;;;;;;;17.11;49.97;100539.72;5052754;28;20413;-77
2023/05/24 09:07:45;;;;;;;15.13;3.95;;;;;;;17.22;48.83;100535.41;5053957;28;20146;-76
2023/05/24 09:10:12;;;;;;;16.30;4.00;;;;;;;17.31;48.63;100538.25;5054127;28;20055;-76
2023/05/24 09:12:43;;;;;;;15.27;4.20;;;;;;;17.36;48.52;100539.72;5053916;28;20071;-77
2023/05/24 09:15:09;;;;;;;13.85;4.00;;;;;;;17.39;48.60;100537.72;5054017;28;20139;-76
2023/05/24 09:17:37;;;;;;;15.57;4.07;;;;;;;17.45;48.67;100537.25;5053622;28;20482;-77
2023/05/24 09:20:08;;;;;;;13.85;3.55;;;;;;;17.51;48.18;100543.94;5053850;28;20059;-77
2023/05/24 09:22:39;;;;;;;12.80;3.70;;;;;;;17.60;48.26;100544.22;5053689;28;20049;-77
2023/05/24 09:25:09;;;;;;;10.90;3.38;;;;;;;17.67;47.99;100545.44;5053857;28;20140;-77
2023/05/24 09:27:37;;;;;;;11.00;3.83;;;;;;;17.72;48.08;100540.66;5053613;28;20049;-78
2023/05/24 09:30:08;;;;;;;14.73;3.60;;;;;;;17.79;46.98;100541.88;5053855;28;20057;-77
2023/05/24 09:32:36;;;;;;;13.35;3.67;;;;;;;17.87;47.52;100537.78;5053506;28;20049;-78
2023/05/24 09:35:07;;;;;;;11.80;3.67;;;;;;;17.90;47.09;100540.22;5053592;28;20762;-77
2023/05/24 09:37:35;;;;;;;11.45;3.47;;;;;;;17.93;47.35;100539.97;5053518;28;20057;-76
2023/05/24 09:40:05;;;;;;;17.40;3.88;;;;;;;17.93;47.08;100539.97;5053549;28;20057;-77
2023/05/24 09:42:32;;;;;;;14.63;4.10;;;;;;;17.91;46.91;100542.75;5053402;28;20053;-77
2023/05/24 09:45:06;;;;;;;11.98;3.90;;;;;;;17.86;46.92;100549.41;5052016;28;20122;-78
2023/05/24 09:47:35;;;;;;;13.32;3.90;;;;;;;17.82;47.19;100540.78;5053392;28;20060;-77
2023/05/24 09:50:04;;;;;;;17.67;4.22;;;;;;;17.79;47.02;100538.38;5053447;28;20063;-76
2023/05/24 09:52:36;;;;;;;12.32;3.92;;;;;;;17.73;47.44;100544.16;5053021;28;20497;-77
2023/05/24 09:55:14;;;;;;;13.25;4.18;;;;;;;17.67;47.26;100545.44;5053148;28;20068;-77
2023/05/24 09:58:00;;;;;;;12.68;3.83;;;;;;;17.68;47.45;100555.16;5052780;28;20060;-77
2023/05/24 10:00:27;;;;;;;13.25;4.55;;;;;;;17.65;47.27;100555.38;5053490;28;20080;-78
2023/05/24 10:03:01;;;;;;;20.00;4.22;;;;;;;17.57;46.81;100556.78;5052904;28;20492;-77
2023/05/24 10:05:30;;;;;;;12.82;3.80;;;;;;;17.57;46.60;100555.94;5052609;28;20049;-76
2023/05/24 10:07:57;;;;;;;18.00;4.53;;;;;;;17.51;46.82;100554.59;5051407;28;20064;-77
2023/05/24 10:10:28;;;;;;;18.63;4.22;;;;;;;17.46;46.73;100554.09;5053073;28;20110;-76
2023/05/24 10:12:55;;;;;;;18.33;4.30;;;;;;;17.44;47.18;100561.31;5051675;28;20045;-77
2023/05/24 10:15:22;;;;;;;14.80;4.10;;;;;;;17.39;47.10;100552.81;5052777;28;20118;-77
2023/05/24 10:17:50;;;;;;;14.98;3.85;;;;;;;17.36;46.85;100553.91;5052533;28;20580;-76
2023/05/24 10:20:17;;;;;;;11.45;3.38;;;;;;;17.36;47.26;100553.03;5052704;28;20052;-77
2023/05/24 10:22:46;;;;;;;16.08;4.32;;;;;;;17.35;47.34;100556.66;5052440;28;20053;-77
2023/05/24 10:25:20;;;;;;;9.57;3.72;;;;;;;17.36;47.10;100566.34;5052608;28;20095;-78
2023/05/24 10:27:49;;;;;;;13.75;3.80;;;;;;;17.35;47.22;100562.00;5052574;28;20551;-77
2023/05/24 10:30:28;;;;;;;16.27;3.72;;;;;;;17.31;47.07;100553.38;5052553;28;20049;-77
2023/05/24 10:32:56;;;;;;;15.60;3.95;;;;;;;17.33;47.15;100559.44;5052201;28;20088;-77
2023/05/24 10:35:24;;;;;;;19.20;4.45;;;;;;;17.31;47.39;100556.88;5052655;28;20060;-77
2023/05/24 10:37:51;;;;;;;13.32;3.20;;;;;;;17.32;47.80;100557.75;5052291;28;20053;-77
2023/05/24 10:40:19;;;;;;;15.35;4.78;;;;;;;17.32;47.65;100555.91;5051270;28;20064;-77
2023/05/24 10:42:47;;;;;;;13.75;3.90;;;;;;;17.36;47.27;100558.34;5052401;28;20044;-76
2023/05/24 10:45:36;;;;;;;21.35;4.20;;;;;;;17.30;47.14;100565.84;5051994;28;20110;-76
2023/05/24 10:48:12;;;;;;;13.38;3.58;;;;;;;17.31;47.17;100556.88;5051003;28;20068;-78
2023/05/24 10:50:40;;;;;;;15.00;3.55;;;;;;;17.32;47.05;100553.25;5052026;28;20399;-78
2023/05/24 10:53:14;;;;;;;15.43;4.20;;;;;;;17.30;46.90;100551.66;5051896;28;20111;-77
2023/05/24 10:55:58;;;;;;;12.90;4.13;;;;;;;17.27;47.20;100550.09;5050532;28;20060;-77
2023/05/24 10:58:47;;;;;;;16.40;4.07;;;;;;;17.29;47.93;100549.97;5051166;28;20064;-77
2023/05/24 11:01:28;;;;;;;10.75;3.20;;;;;;;17.33;47.58;100551.44;5051985;28;20049;-76
2023/05/24 11:04:09;;;;;;;17.27;4.13;;;;;;;17.38;48.11;100543.16;5051947;28;20494;-77
2023/05/24 11:06:46;;;;;;;11.70;3.72;;;;;;;17.45;47.68;100552.34;5050556;28;20161;-76
2023/05/24 11:09:14;;;;;;;13.73;3.60;;;;;;;17.56;48.26;100552.44;5051782;28;20061;-76
2023/05/24 11:11:45;;;;;;;12.35;3.70;;;;;;;17.63;47.19;100547.50;5050636;28;20053;-77
2023/05/24 11:14:13;;;;;;;13.13;4.05;;;;;;;17.70;47.52;100542.56;5050267;28;20705;-77
2023/05/24 11:16:44;;;;;;;16.02;4.28;;;;;;;17.78;47.94;100553.50;5050632;28;20057;-78
2023/05/24 11:19:30;;;;;;;12.52;3.50;;;;;;;17.88;47.69;100556.31;5051479;28;20053;-77
2023/05/24 11:21:58;;;;;;;12.77;3.40;;;;;;;17.96;47.63;100550.41;5051643;28;20061;-76
2023/05/24 11:24:26;;;;;;;17.02;3.75;;;;;;;18.02;47.45;100547.25;5051211;28;20045;-77
2023/05/24 11:26:52;;;;;;;19.27;3.90;;;;;;;18.08;47.70;100544.19;5051069;28;20052;-77
2023/05/24 11:29:21;;;;;;;13.75;4.70;;;;;;;18.15;47.18;100555.22;5051269;28;20063;-77
2023/05/24 11:31:53;;;;;;;13.20;3.80;;;;;;;18.21;47.05;100548.56;5051517;28;20092;-77
2023/05/24 11:34:20;;;;;;;12.82;3.58;;;;;;;18.26;46.82;100559.72;5051226;28;20064;-76
2023/05/24 11:36:48;;;;;;;13.38;4.13;;;;;;;18.27;46.87;100545.41;5050965;28;20060;-77